Time;durP1;ratioP1;P1;durP2;ratioP2;P2;SDS_P1;SDS_P2;PMS_P1;PMS_P2;Temp;Humidity;BMP_temperature;BMP_pressure;BME280_temperature;BME280_humidity;BME280_pressure;Samples;Min_cycle;Max_cycle;Signal;HPM_P1;HPM_P2
2022/01/08 00:01:09;;;;;;;2.15;1.58;;;;;;;;;;5048859;28;20083;-69
2022/01/08 00:03:37;;;;;;;2.63;1.63;;;;;;;;;;5044022;28;20061;-69
2022/01/08 00:06:06;;;;;;;2.10;1.45;;;;;;;;;;5051106;28;20092;-69
2022/01/08 00:08:34;;;;;;;3.38;1.92;;;;;;;;;;5054100;28;20041;-69
2022/01/08 00:11:07;;;;;;;4.35;1.77;;;;;;;;;;5026618;28;20041;-70
2022/01/08 00:13:39;;;;;;;4.82;1.73;;;;;;;;;;5060239;28;20045;-70
2022/01/08 00:16:08;;;;;;;3.08;1.67;;;;;;;;;;5057414;28;20507;-69
2022/01/08 00:18:37;;;;;;;2.45;1.60;;;;;;;;;;5051494;28;20076;-69
2022/01/08 00:21:05;;;;;;;4.07;1.65;;;;;;;;;;5047139;28;20065;-69
2022/01/08 00:23:34;;;;;;;2.13;1.40;;;;;;;;;;5055821;28;20068;-69
2022/01/08 00:26:06;;;;;;;2.63;1.50;;;;;;;;;;5050744;28;20087;-70
2022/01/08 00:28:34;;;;;;;2.97;1.48;;;;;;;;;;5047985;28;20548;-69
2022/01/08 00:31:09;;;;;;;3.20;1.60;;;;;;;;;;5050411;28;20135;-70
2022/01/08 00:33:38;;;;;;;2.42;1.40;;;;;;;;;;5050886;28;20206;-69
2022/01/08 00:36:06;;;;;;;1.95;1.55;;;;;;;;;;5049805;28;20137;-69
2022/01/08 00:38:34;;;;;;;2.50;1.35;;;;;;;;;;5049637;28;20579;-69
2022/01/08 00:41:06;;;;;;;2.55;1.38;;;;;;;;;;5052349;28;20145;-70
2022/01/08 00:43:34;;;;;;;2.53;1.20;;;;;;;;;;5053832;28;20073;-69
2022/01/08 00:46:05;;;;;;;5.53;1.80;;;;;;;;;;5054642;28;20045;-70
2022/01/08 00:48:34;;;;;;;2.92;1.25;;;;;;;;;;5041866;28;20077;-69
2022/01/08 00:51:07;;;;;;;1.45;1.27;;;;;;;;;;5035636;28;20068;-70
2022/01/08 00:53:35;;;;;;;1.77;1.17;;;;;;;;;;5048205;28;20136;-70
2022/01/08 00:56:06;;;;;;;2.55;1.30;;;;;;;;;;5049030;28;20092;-70
2022/01/08 00:58:34;;;;;;;2.55;1.35;;;;;;;;;;5049908;28;20548;-69
2022/01/08 01:01:05;;;;;;;2.42;1.40;;;;;;;;;;5044789;28;20144;-70
2022/01/08 01:03:35;;;;;;;2.08;1.35;;;;;;;;;;5041955;28;20509;-69
2022/01/08 01:06:07;;;;;;;4.63;1.80;;;;;;;;;;5044435;28;20106;-69
2022/01/08 01:08:35;;;;;;;2.17;1.25;;;;;;;;;;5049594;28;20041;-69
2022/01/08 01:11:06;;;;;;;1.52;1.10;;;;;;;;;;5049360;28;20136;-70
2022/01/08 01:13:35;;;;;;;1.70;1.40;;;;;;;;;;5053920;28;20466;-69
2022/01/08 01:16:07;;;;;;;2.50;1.55;;;;;;;;;;5062880;28;20129;-70
2022/01/08 01:18:37;;;;;;;2.67;1.33;;;;;;;;;;5050131;28;20415;-69
2022/01/08 01:21:05;;;;;;;2.97;1.45;;;;;;;;;;5046161;28;20059;-69
2022/01/08 01:23:38;;;;;;;1.85;1.50;;;;;;;;;;5058828;28;20049;-69
2022/01/08 01:26:10;;;;;;;2.40;1.58;;;;;;;;;;5053521;28;20091;-69
2022/01/08 01:28:49;;;;;;;1.45;1.20;;;;;;;;;;5069959;28;20132;-69
2022/01/08 01:42:55;;;;;;;3.08;1.80;;;;;;;;;;5060921;28;20136;-70
2022/01/08 01:48:09;;;;;;;2.70;1.48;;;;;;;;;;5041792;28;20096;-70
2022/01/08 01:50:39;;;;;;;2.05;1.25;;;;;;;;;;5042523;28;20128;-70
2022/01/08 01:53:07;;;;;;;4.47;1.50;;;;;;;;;;5040829;28;20095;-69
2022/01/08 01:55:36;;;;;;;1.45;1.00;;;;;;;;;;5047149;28;20131;-69
2022/01/08 01:58:05;;;;;;;1.73;1.30;;;;;;;;;;5053577;28;20136;-70
2022/01/08 02:00:34;;;;;;;1.40;1.17;;;;;;;;;;5049906;28;20148;-70
2022/01/08 02:03:02;;;;;;;1.40;1.27;;;;;;;;;;5056652;28;20072;-70
2022/01/08 02:05:31;;;;;;;1.90;1.63;;;;;;;;;;5058158;28;20128;-71
2022/01/08 02:08:00;;;;;;;1.55;1.30;;;;;;;;;;5049156;28;20041;-70
2022/01/08 02:10:29;;;;;;;3.20;1.63;;;;;;;;;;5025595;28;20552;-70
2022/01/08 02:12:57;;;;;;;1.52;1.20;;;;;;;;;;5049630;28;20087;-72
2022/01/08 02:15:25;;;;;;;2.53;1.27;;;;;;;;;;5058981;28;20503;-70
2022/01/08 02:17:53;;;;;;;2.35;1.05;;;;;;;;;;5049527;28;20524;-71
2022/01/08 02:20:23;;;;;;;2.45;1.40;;;;;;;;;;5048377;28;20076;-70
2022/01/08 02:22:51;;;;;;;1.50;1.10;;;;;;;;;;5053518;28;20497;-70
2022/01/08 02:25:22;;;;;;;2.42;1.17;;;;;;;;;;5057814;28;20120;-70
2022/01/08 02:27:51;;;;;;;2.83;1.38;;;;;;;;;;5049410;28;20132;-70
2022/01/08 02:30:20;;;;;;;2.25;1.27;;;;;;;;;;5044918;28;20055;-70
2022/01/08 02:32:48;;;;;;;3.20;1.60;;;;;;;;;;5054622;28;20129;-70
2022/01/08 02:35:21;;;;;;;2.88;1.40;;;;;;;;;;5048860;28;20037;-70
2022/01/08 02:37:51;;;;;;;3.08;1.63;;;;;;;;;;5064899;28;20114;-70
2022/01/08 02:40:20;;;;;;;2.35;1.20;;;;;;;;;;5057933;28;20128;-70
2022/01/08 02:42:52;;;;;;;3.53;1.20;;;;;;;;;;5057750;28;20519;-70
2022/01/08 02:45:21;;;;;;;2.70;1.50;;;;;;;;;;5053603;28;20052;-71
2022/01/08 02:47:50;;;;;;;4.63;1.52;;;;;;;;;;5037853;28;20128;-70
2022/01/08 02:50:18;;;;;;;1.58;1.25;;;;;;;;;;5049658;28;20052;-70
2022/01/08 02:52:47;;;;;;;2.08;1.33;;;;;;;;;;5055570;28;20087;-70
2022/01/08 02:55:18;;;;;;;1.30;1.10;;;;;;;;;;5060269;28;20048;-70
2022/01/08 02:57:46;;;;;;;2.08;1.23;;;;;;;;;;5056673;28;20068;-71
2022/01/08 03:00:16;;;;;;;2.17;1.27;;;;;;;;;;5053565;28;20087;-70
2022/01/08 03:02:45;;;;;;;1.73;1.33;;;;;;;;;;5047510;28;20139;-70
2022/01/08 03:05:13;;;;;;;2.28;1.33;;;;;;;;;;5054730;28;20084;-70
2022/01/08 03:07:42;;;;;;;3.83;1.45;;;;;;;;;;5049848;28;20127;-70
2022/01/08 03:10:11;;;;;;;3.53;1.70;;;;;;;;;;5043063;28;20068;-70
2022/01/08 03:12:41;;;;;;;2.03;1.27;;;;;;;;;;5047456;28;20068;-70
2022/01/08 03:15:10;;;;;;;2.08;1.50;;;;;;;;;;5068980;28;20051;-70
2022/01/08 03:17:39;;;;;;;3.58;1.30;;;;;;;;;;5066137;28;20072;-70
2022/01/08 03:20:11;;;;;;;3.20;1.00;;;;;;;;;;5055837;28;20063;-70
2022/01/08 03:22:40;;;;;;;1.45;1.25;;;;;;;;;;5052226;28;20464;-70
2022/01/08 03:25:09;;;;;;;2.25;1.25;;;;;;;;;;5051699;28;20055;-71
2022/01/08 03:27:37;;;;;;;3.60;1.30;;;;;;;;;;5052640;28;20120;-71
2022/01/08 03:30:07;;;;;;;1.60;0.88;;;;;;;;;;5050978;28;20128;-71
2022/01/08 03:32:36;;;;;;;2.17;1.50;;;;;;;;;;5051336;28;20139;-71
2022/01/08 03:35:05;;;;;;;2.55;1.60;;;;;;;;;;5064342;28;20152;-70
2022/01/08 03:37:33;;;;;;;3.13;1.35;;;;;;;;;;5037618;28;20125;-71
2022/01/08 03:40:01;;;;;;;3.10;1.25;;;;;;;;;;5054597;28;20140;-70
2022/01/08 03:42:29;;;;;;;2.10;1.38;;;;;;;;;;5069260;28;20508;-70
2022/01/08 03:44:58;;;;;;;5.97;1.67;;;;;;;;;;5066683;28;20144;-70
2022/01/08 03:47:52;;;;;;;1.50;1.08;;;;;;;;;;5055043;28;20519;-70
2022/01/08 03:50:20;;;;;;;2.42;1.33;;;;;;;;;;5039913;28;20080;-70
2022/01/08 03:52:50;;;;;;;3.30;1.65;;;;;;;;;;5051465;28;20088;-70
2022/01/08 03:55:18;;;;;;;3.75;1.50;;;;;;;;;;5059220;28;20235;-70
2022/01/08 03:57:59;;;;;;;2.05;1.40;;;;;;;;;;1762249;28;10022919;-71
2022/01/08 04:00:27;;;;;;;3.53;1.65;;;;;;;;;;3989276;28;10001072;-70
2022/01/08 04:02:57;;;;;;;3.22;1.52;;;;;;;;;;5031577;28;20050;-70
2022/01/08 04:05:25;;;;;;;2.55;1.30;;;;;;;;;;5047545;28;20492;-70
2022/01/08 04:07:54;;;;;;;2.10;1.55;;;;;;;;;;5039158;28;20052;-70
2022/01/08 04:10:22;;;;;;;2.47;1.50;;;;;;;;;;5045540;28;20659;-70
2022/01/08 04:12:54;;;;;;;1.52;1.23;;;;;;;;;;5039892;28;20132;-70
2022/01/08 04:15:39;;;;;;;3.10;1.25;;;;;;;;;;5035317;28;20051;-70
2022/01/08 04:18:09;;;;;;;2.90;1.20;;;;;;;;;;5039541;28;20056;-70
2022/01/08 04:20:47;;;;;;;2.25;0.93;;;;;;;;;;5042961;28;20514;-70
2022/01/08 04:23:20;;;;;;;1.63;1.38;;;;;;;;;;5035988;28;20552;-70
2022/01/08 04:25:49;;;;;;;1.60;1.17;;;;;;;;;;5044062;28;20413;-70
2022/01/08 04:28:18;;;;;;;4.82;1.52;;;;;;;;;;5035931;28;20136;-70
2022/01/08 04:30:46;;;;;;;1.60;1.10;;;;;;;;;;5032277;28;20581;-70
2022/01/08 04:33:16;;;;;;;3.20;1.50;;;;;;;;;;5037557;28;20444;-70
2022/01/08 04:35:44;;;;;;;3.47;1.30;;;;;;;;;;5032898;28;20053;-70
2022/01/08 04:38:13;;;;;;;2.70;1.00;;;;;;;;;;5032923;28;20137;-70
2022/01/08 04:40:41;;;;;;;2.60;1.27;;;;;;;;;;5030891;28;20057;-69
2022/01/08 04:43:09;;;;;;;2.15;1.10;;;;;;;;;;5036414;28;20127;-69
2022/01/08 04:45:38;;;;;;;1.65;1.10;;;;;;;;;;5037214;28;20049;-69
2022/01/08 04:48:07;;;;;;;2.47;1.10;;;;;;;;;;5040248;28;20465;-69
2022/01/08 04:50:36;;;;;;;2.97;1.15;;;;;;;;;;5048680;28;20044;-69
2022/01/08 04:53:05;;;;;;;1.88;1.08;;;;;;;;;;5042544;28;20140;-69
2022/01/08 04:55:33;;;;;;;1.70;1.20;;;;;;;;;;5037921;28;20133;-70
2022/01/08 04:58:01;;;;;;;1.83;1.00;;;;;;;;;;5036091;28;20410;-69
2022/01/08 05:00:29;;;;;;;2.38;1.17;;;;;;;;;;5049391;28;20131;-69
2022/01/08 05:02:58;;;;;;;1.35;1.00;;;;;;;;;;5049433;28;20461;-69
2022/01/08 05:05:26;;;;;;;1.48;0.90;;;;;;;;;;5050448;28;20049;-69
2022/01/08 05:07:56;;;;;;;2.05;1.20;;;;;;;;;;5055246;28;20055;-69
2022/01/08 05:10:25;;;;;;;1.23;1.05;;;;;;;;;;5060091;28;20068;-69
2022/01/08 05:12:53;;;;;;;1.48;1.17;;;;;;;;;;5051191;28;20081;-69
2022/01/08 05:15:21;;;;;;;1.45;1.00;;;;;;;;;;5049496;28;20044;-69
2022/01/08 05:17:54;;;;;;;1.58;0.93;;;;;;;;;;5064815;28;20080;-69
2022/01/08 05:20:23;;;;;;;1.00;0.80;;;;;;;;;;5048734;28;20064;-69
2022/01/08 05:22:53;;;;;;;1.75;0.60;;;;;;;;;;5058597;28;20480;-70
2022/01/08 05:25:23;;;;;;;1.98;1.08;;;;;;;;;;5053577;28;20072;-69
2022/01/08 05:27:51;;;;;;;1.23;0.77;;;;;;;;;;5063572;28;20488;-69
2022/01/08 05:30:21;;;;;;;1.15;0.77;;;;;;;;;;5057671;28;20080;-71
2022/01/08 05:32:50;;;;;;;1.92;1.08;;;;;;;;;;5051515;28;20441;-70
2022/01/08 05:35:19;;;;;;;0.95;0.70;;;;;;;;;;5053448;28;20077;-70
2022/01/08 05:37:47;;;;;;;1.35;0.70;;;;;;;;;;5061200;28;20079;-70
2022/01/08 05:40:15;;;;;;;0.95;0.80;;;;;;;;;;5051952;28;20413;-69
2022/01/08 05:42:45;;;;;;;0.90;0.70;;;;;;;;;;5050277;28;20128;-69
2022/01/08 05:45:13;;;;;;;1.88;1.00;;;;;;;;;;5055062;28;20135;-69
2022/01/08 05:47:42;;;;;;;4.25;0.60;;;;;;;;;;5052339;28;20559;-70
2022/01/08 05:50:10;;;;;;;2.75;0.90;;;;;;;;;;5049136;28;20065;-70
2022/01/08 05:52:39;;;;;;;0.77;0.70;;;;;;;;;;5054640;28;20053;-69
2022/01/08 05:55:08;;;;;;;7.32;1.00;;;;;;;;;;5059787;28;20049;-69
2022/01/08 05:57:36;;;;;;;1.88;0.88;;;;;;;;;;5055793;28;20152;-69
2022/01/08 06:00:07;;;;;;;1.25;0.80;;;;;;;;;;5035954;28;20072;-69
2022/01/08 06:02:35;;;;;;;1.92;0.82;;;;;;;;;;5041465;28;20084;-69
2022/01/08 06:05:04;;;;;;;1.58;0.70;;;;;;;;;;5045621;28;20053;-69
2022/01/08 06:07:32;;;;;;;0.82;0.60;;;;;;;;;;5041365;28;20548;-69
2022/01/08 06:10:00;;;;;;;1.92;0.95;;;;;;;;;;5034664;28;20573;-69
2022/01/08 06:12:29;;;;;;;3.17;1.02;;;;;;;;;;5039240;28;20045;-69
2022/01/08 06:14:57;;;;;;;0.73;0.60;;;;;;;;;;5037144;28;20657;-69
2022/01/08 06:17:27;;;;;;;1.15;0.50;;;;;;;;;;5032801;28;20572;-69
2022/01/08 06:19:55;;;;;;;1.13;0.90;;;;;;;;;;5041028;28;20405;-69
2022/01/08 06:22:24;;;;;;;1.98;0.80;;;;;;;;;;5039358;28;20053;-68
2022/01/08 06:24:52;;;;;;;6.25;0.80;;;;;;;;;;5029904;28;20136;-68
2022/01/08 06:27:20;;;;;;;1.48;0.70;;;;;;;;;;5034015;28;20047;-68
2022/01/08 06:29:48;;;;;;;5.68;1.02;;;;;;;;;;5044161;28;20128;-68
2022/01/08 06:32:17;;;;;;;2.47;0.80;;;;;;;;;;5034574;28;20132;-68
2022/01/08 06:34:46;;;;;;;0.50;0.50;;;;;;;;;;5037766;28;20049;-68
2022/01/08 06:37:15;;;;;;;1.17;0.73;;;;;;;;;;5036070;28;20053;-68
2022/01/08 06:39:44;;;;;;;1.13;0.90;;;;;;;;;;5035445;28;20046;-69
2022/01/08 06:42:12;;;;;;;1.27;0.77;;;;;;;;;;5036654;28;20085;-68
2022/01/08 06:44:40;;;;;;;1.40;0.88;;;;;;;;;;5029437;28;20124;-68
2022/01/08 06:47:09;;;;;;;2.35;0.45;;;;;;;;;;5028814;28;20063;-69
2022/01/08 06:49:38;;;;;;;1.67;0.57;;;;;;;;;;5031484;28;20490;-69
2022/01/08 06:52:07;;;;;;;3.17;0.57;;;;;;;;;;5031151;28;20136;-69
2022/01/08 06:54:36;;;;;;;1.55;0.50;;;;;;;;;;5034095;28;20045;-69
2022/01/08 06:57:05;;;;;;;0.93;0.45;;;;;;;;;;5043793;28;20076;-68
2022/01/08 06:59:33;;;;;;;2.80;0.60;;;;;;;;;;5040665;28;20132;-69
2022/01/08 07:02:17;;;;;;;1.75;0.82;;;;;;;;;;800605;28;10003346;-68
2022/01/08 07:04:46;;;;;;;1.17;0.52;;;;;;;;;;5047868;28;20300;-68
2022/01/08 07:07:16;;;;;;;0.38;0.38;;;;;;;;;;5048382;28;20132;-68
2022/01/08 07:09:44;;;;;;;0.32;0.32;;;;;;;;;;5037056;28;20167;-68
2022/01/08 07:12:13;;;;;;;0.65;0.50;;;;;;;;;;5045453;28;20172;-68
2022/01/08 07:14:41;;;;;;;2.35;0.38;;;;;;;;;;5046729;28;20045;-68
2022/01/08 07:17:10;;;;;;;2.22;0.55;;;;;;;;;;5029767;28;20049;-69
2022/01/08 07:19:38;;;;;;;0.50;0.35;;;;;;;;;;5034985;28;20481;-73
2022/01/08 07:22:07;;;;;;;0.40;0.40;;;;;;;;;;5039720;28;20107;-69
2022/01/08 07:24:36;;;;;;;1.48;0.50;;;;;;;;;;5042442;28;20055;-69
2022/01/08 07:27:05;;;;;;;0.75;0.40;;;;;;;;;;5046592;28;20049;-69
2022/01/08 07:29:33;;;;;;;0.75;0.45;;;;;;;;;;5047031;28;20544;-71
2022/01/08 07:32:03;;;;;;;0.40;0.40;;;;;;;;;;5041947;28;20049;-69
2022/01/08 07:34:31;;;;;;;0.40;0.40;;;;;;;;;;5042134;28;20141;-69
2022/01/08 07:36:59;;;;;;;0.28;0.28;;;;;;;;;;5036771;28;20416;-69
2022/01/08 07:39:28;;;;;;;1.48;0.52;;;;;;;;;;5033526;28;20080;-69
2022/01/08 07:41:57;;;;;;;0.47;0.43;;;;;;;;;;5023729;28;20132;-70
2022/01/08 07:44:26;;;;;;;0.65;0.43;;;;;;;;;;5038419;28;20152;-68
2022/01/08 07:46:56;;;;;;;0.50;0.50;;;;;;;;;;5031696;28;20506;-68
2022/01/08 07:49:24;;;;;;;0.63;0.40;;;;;;;;;;5041595;28;20461;-68
2022/01/08 07:51:53;;;;;;;0.50;0.50;;;;;;;;;;5042029;28;20626;-68
2022/01/08 07:54:21;;;;;;;1.00;0.30;;;;;;;;;;5049477;28;20542;-68
2022/01/08 07:56:49;;;;;;;0.52;0.50;;;;;;;;;;5033441;28;20630;-69
2022/01/08 07:59:19;;;;;;;0.55;0.55;;;;;;;;;;5032239;28;20068;-69
2022/01/08 08:01:47;;;;;;;1.42;0.30;;;;;;;;;;5035020;28;20140;-68
2022/01/08 08:04:15;;;;;;;2.17;0.50;;;;;;;;;;5038890;28;20049;-69
2022/01/08 08:06:45;;;;;;;2.90;0.70;;;;;;;;;;5036890;28;20494;-69
2022/01/08 08:09:13;;;;;;;5.43;0.68;;;;;;;;;;5041171;28;20049;-68
2022/01/08 08:11:42;;;;;;;1.15;0.47;;;;;;;;;;5046027;28;20140;-68
2022/01/08 08:14:10;;;;;;;0.40;0.40;;;;;;;;;;5040343;28;20045;-69
2022/01/08 08:16:40;;;;;;;0.80;0.40;;;;;;;;;;5032291;28;20045;-70
2022/01/08 08:19:08;;;;;;;0.75;0.60;;;;;;;;;;5043508;28;20156;-71
2022/01/08 08:21:37;;;;;;;0.40;0.40;;;;;;;;;;5048711;28;20135;-69
2022/01/08 08:24:06;;;;;;;0.75;0.40;;;;;;;;;;5027618;28;20088;-70
2022/01/08 08:26:44;;;;;;;0.30;0.30;;;;;;;;;;966733;28;10023213;-69
2022/01/08 08:29:13;;;;;;;1.73;0.43;;;;;;;;;;4681959;28;10001629;-70
2022/01/08 08:31:51;;;;;;;0.93;0.27;;;;;;;;;;1609351;28;10022622;-72
2022/01/08 08:34:20;;;;;;;0.40;0.40;;;;;;;;;;3989613;28;10001673;-70
2022/01/08 08:36:48;;;;;;;0.32;0.32;;;;;;;;;;5035198;28;20053;-69
2022/01/08 08:39:16;;;;;;;0.60;0.40;;;;;;;;;;5043803;28;20136;-69
2022/01/08 08:41:45;;;;;;;1.77;0.45;;;;;;;;;;5031317;28;20124;-69
2022/01/08 08:44:13;;;;;;;1.27;0.30;;;;;;;;;;5022505;28;20140;-69
2022/01/08 08:46:41;;;;;;;3.70;0.70;;;;;;;;;;5025364;28;20555;-69
2022/01/08 08:49:11;;;;;;;2.03;0.52;;;;;;;;;;5034772;28;20095;-69
2022/01/08 08:51:39;;;;;;;0.43;0.40;;;;;;;;;;5036975;28;20050;-69
2022/01/08 08:54:08;;;;;;;2.45;0.40;;;;;;;;;;5040620;28;20144;-70
2022/01/08 08:56:38;;;;;;;1.30;0.90;;;;;;;;;;5030338;28;20144;-70
2022/01/08 08:59:06;;;;;;;1.65;0.47;;;;;;;;;;5043446;28;20122;-70
2022/01/08 09:01:35;;;;;;;1.35;0.55;;;;;;;;;;5049158;28;20072;-72
2022/01/08 09:04:03;;;;;;;0.90;0.40;;;;;;;;;;5044937;28;20076;-69
2022/01/08 09:06:33;;;;;;;0.65;0.63;;;;;;;;;;5052636;28;20058;-70
2022/01/08 09:09:02;;;;;;;2.35;0.47;;;;;;;;;;5058414;28;20147;-70
2022/01/08 09:11:30;;;;;;;1.75;0.57;;;;;;;;;;5057098;28;20460;-69
2022/01/08 09:13:59;;;;;;;0.50;0.50;;;;;;;;;;5044388;28;20490;-69
2022/01/08 09:16:27;;;;;;;0.93;0.52;;;;;;;;;;5042562;28;20069;-70
2022/01/08 09:18:56;;;;;;;2.05;0.50;;;;;;;;;;5046421;28;20132;-72
2022/01/08 09:21:24;;;;;;;0.57;0.50;;;;;;;;;;5045154;28;20123;-70
2022/01/08 09:23:54;;;;;;;1.90;0.85;;;;;;;;;;5055334;28;20100;-69
2022/01/08 09:26:22;;;;;;;0.68;0.68;;;;;;;;;;5054140;28;20123;-68
2022/01/08 09:28:50;;;;;;;2.08;0.60;;;;;;;;;;5048706;28;20175;-69
2022/01/08 09:31:19;;;;;;;0.55;0.35;;;;;;;;;;5051743;28;20082;-69
2022/01/08 09:33:47;;;;;;;1.38;0.80;;;;;;;;;;5048336;28;20044;-68
2022/01/08 09:36:16;;;;;;;1.13;0.60;;;;;;;;;;5055989;28;20132;-70
2022/01/08 09:38:44;;;;;;;0.80;0.52;;;;;;;;;;5054523;28;20075;-71
2022/01/08 09:41:14;;;;;;;1.20;0.40;;;;;;;;;;5055596;28;20091;-70
2022/01/08 09:43:42;;;;;;;0.50;0.50;;;;;;;;;;5053928;28;20487;-70
2022/01/08 09:46:11;;;;;;;0.30;0.30;;;;;;;;;;5055672;28;20060;-71
2022/01/08 09:48:39;;;;;;;1.40;0.65;;;;;;;;;;5053676;28;20535;-70
2022/01/08 09:51:08;;;;;;;0.60;0.50;;;;;;;;;;5054160;28;20511;-69
2022/01/08 09:53:36;;;;;;;0.30;0.30;;;;;;;;;;5051278;28;20132;-71
2022/01/08 09:56:15;;;;;;;1.50;0.85;;;;;;;;;;3351343;28;10021440;-70
2022/01/08 09:58:43;;;;;;;1.38;0.68;;;;;;;;;;2599541;28;10002266;-71
2022/01/08 10:01:23;;;;;;;4.03;0.63;;;;;;;;;;5028551;28;20049;-71
2022/01/08 10:03:51;;;;;;;0.85;0.63;;;;;;;;;;5038472;28;20140;-73
2022/01/08 10:06:23;;;;;;;0.73;0.50;;;;;;;;;;5036468;28;20048;-70
2022/01/08 10:08:52;;;;;;;0.57;0.50;;;;;;;;;;5037406;28;20091;-72
2022/01/08 10:11:22;;;;;;;0.95;0.50;;;;;;;;;;5036797;28;20471;-71
2022/01/08 10:14:00;;;;;;;1.13;0.60;;;;;;;;;;5042032;28;20118;-71
2022/01/08 10:19:18;;;;;;;0.88;0.55;;;;;;;;;;5017327;28;20056;-70
2022/01/08 10:21:46;;;;;;;1.48;0.80;;;;;;;;;;5039397;28;20132;-73
2022/01/08 10:24:19;;;;;;;1.98;0.68;;;;;;;;;;5044296;28;20136;-70
2022/01/08 10:26:51;;;;;;;0.85;0.60;;;;;;;;;;5029444;28;20086;-74
2022/01/08 10:29:21;;;;;;;0.60;0.60;;;;;;;;;;5037883;28;20056;-72
2022/01/08 10:31:50;;;;;;;1.45;0.70;;;;;;;;;;5042200;28;20120;-72
2022/01/08 10:34:19;;;;;;;2.28;0.50;;;;;;;;;;5032524;28;20045;-71
2022/01/08 10:36:49;;;;;;;0.45;0.45;;;;;;;;;;5039735;28;20117;-71
2022/01/08 10:39:20;;;;;;;0.68;0.57;;;;;;;;;;5031571;28;20091;-70
2022/01/08 10:41:51;;;;;;;2.15;0.68;;;;;;;;;;5027741;28;20532;-71
2022/01/08 10:44:20;;;;;;;1.30;0.80;;;;;;;;;;5019738;28;20058;-70
2022/01/08 10:46:56;;;;;;;0.60;0.60;;;;;;;;;;5024490;28;20045;-71
2022/01/08 10:49:31;;;;;;;0.63;0.60;;;;;;;;;;5018982;28;20577;-71
2022/01/08 10:52:00;;;;;;;0.70;0.63;;;;;;;;;;5021415;28;20461;-70
2022/01/08 10:54:29;;;;;;;1.10;0.90;;;;;;;;;;5018026;28;20081;-71
2022/01/08 10:57:01;;;;;;;2.10;1.00;;;;;;;;;;5023787;28;20045;-72
2022/01/08 10:59:30;;;;;;;1.02;0.90;;;;;;;;;;5032367;28;20135;-70
2022/01/08 11:01:59;;;;;;;4.60;1.35;;;;;;;;;;5044686;28;20045;-71
2022/01/08 11:04:36;;;;;;;0.95;0.75;;;;;;;;;;5054325;28;20076;-70
2022/01/08 11:07:06;;;;;;;3.53;1.40;;;;;;;;;;5035507;28;20060;-72
2022/01/08 11:09:52;;;;;;;2.05;0.63;;;;;;;;;;1194155;28;10022423;-68
2022/01/08 11:12:25;;;;;;;1.55;0.88;;;;;;;;;;4693108;28;10001485;-69
2022/01/08 11:15:23;;;;;;;1.05;0.90;;;;;;;;;;5054377;28;20080;-70
2022/01/08 11:17:54;;;;;;;1.42;0.80;;;;;;;;;;5049412;28;20473;-70
2022/01/08 11:20:45;;;;;;;0.88;0.73;;;;;;;;;;5052621;28;20073;-69
2022/01/08 11:23:15;;;;;;;1.98;0.80;;;;;;;;;;5045377;28;20114;-69
2022/01/08 11:25:46;;;;;;;3.42;1.20;;;;;;;;;;5051967;28;20041;-68
2022/01/08 11:28:16;;;;;;;1.17;1.00;;;;;;;;;;5041466;28;20440;-68
2022/01/08 11:30:47;;;;;;;3.47;1.42;;;;;;;;;;5058318;28;20052;-68
2022/01/08 11:33:20;;;;;;;2.80;1.50;;;;;;;;;;5054316;28;20053;-71
2022/01/08 11:35:49;;;;;;;1.95;1.42;;;;;;;;;;5045318;28;20054;-70
2022/01/08 11:38:20;;;;;;;2.28;1.10;;;;;;;;;;5071957;28;20079;-68
2022/01/08 11:40:50;;;;;;;2.10;1.10;;;;;;;;;;5054023;28;20376;-69
2022/01/08 11:43:21;;;;;;;2.95;1.70;;;;;;;;;;5055409;28;20124;-69
2022/01/08 11:45:54;;;;;;;3.58;1.70;;;;;;;;;;5053533;28;20052;-70
2022/01/08 11:48:23;;;;;;;2.97;1.85;;;;;;;;;;5066679;28;20075;-70
2022/01/08 11:50:52;;;;;;;2.90;1.63;;;;;;;;;;5035983;28;20358;-70
2022/01/08 11:53:22;;;;;;;2.13;1.10;;;;;;;;;;5046987;28;20079;-70
2022/01/08 11:55:51;;;;;;;6.13;1.25;;;;;;;;;;5049103;28;20122;-70
2022/01/08 11:58:23;;;;;;;3.25;2.03;;;;;;;;;;5050882;28;20085;-70
2022/01/08 12:00:57;;;;;;;5.78;1.77;;;;;;;;;;5057109;28;20102;-72
2022/01/08 12:03:34;;;;;;;3.20;1.83;;;;;;;;;;5050886;28;20041;-71
2022/01/08 12:06:18;;;;;;;6.95;2.05;;;;;;;;;;5047262;28;20063;-71
2022/01/08 12:08:57;;;;;;;6.18;2.05;;;;;;;;;;5047402;28;20087;-70
2022/01/08 12:11:25;;;;;;;4.13;2.10;;;;;;;;;;5040234;28;20077;-72
2022/01/08 12:13:55;;;;;;;4.00;1.88;;;;;;;;;;5052067;28;20136;-72
2022/01/08 12:16:33;;;;;;;6.10;1.65;;;;;;;;;;5042624;28;20049;-71
2022/01/08 12:19:03;;;;;;;4.88;1.98;;;;;;;;;;5042013;28;20081;-71
2022/01/08 12:21:33;;;;;;;10.55;1.40;;;;;;;;;;5053889;28;20049;-71
2022/01/08 12:24:32;;;;;;;2.40;1.70;;;;;;;;;;5051838;28;20045;-72
2022/01/08 12:27:01;;;;;;;3.58;1.05;;;;;;;;;;5041594;28;20132;-70
2022/01/08 12:29:35;;;;;;;3.03;1.70;;;;;;;;;;5057061;28;20195;-70
2022/01/08 12:32:25;;;;;;;4.77;1.40;;;;;;;;;;5058263;28;20049;-72
2022/01/08 12:35:01;;;;;;;1.63;1.00;;;;;;;;;;5062700;28;20044;-71
2022/01/08 12:37:36;;;;;;;2.92;1.48;;;;;;;;;;5059076;28;20053;-71
2022/01/08 12:40:06;;;;;;;4.20;1.75;;;;;;;;;;5064466;28;20094;-71
2022/01/08 12:42:42;;;;;;;1.60;1.13;;;;;;;;;;5062913;28;20080;-71
2022/01/08 12:45:14;;;;;;;2.22;1.05;;;;;;;;;;5059978;28;20072;-71
2022/01/08 12:47:46;;;;;;;3.50;1.60;;;;;;;;;;5052584;28;20055;-70
2022/01/08 12:50:20;;;;;;;6.57;1.80;;;;;;;;;;5055568;28;20050;-71
2022/01/08 12:53:07;;;;;;;0.82;0.70;;;;;;;;;;5047613;28;20049;-69
2022/01/08 12:55:36;;;;;;;2.25;1.33;;;;;;;;;;5051715;28;20036;-72
2022/01/08 12:58:14;;;;;;;3.28;1.60;;;;;;;;;;5049000;28;20048;-71
2022/01/08 13:00:57;;;;;;;3.58;1.60;;;;;;;;;;5056150;28;20092;-70
2022/01/08 13:03:27;;;;;;;3.25;1.35;;;;;;;;;;5047075;28;20059;-71
2022/01/08 13:05:55;;;;;;;2.15;1.08;;;;;;;;;;5057776;28;20075;-71
2022/01/08 13:08:24;;;;;;;2.35;1.30;;;;;;;;;;5051308;28;20081;-70
2022/01/08 13:10:56;;;;;;;1.50;1.13;;;;;;;;;;5057495;28;20254;-70
2022/01/08 13:13:25;;;;;;;3.83;1.30;;;;;;;;;;5064876;28;20051;-70
2022/01/08 13:15:54;;;;;;;1.55;1.05;;;;;;;;;;5044610;28;20084;-70
2022/01/08 13:18:24;;;;;;;3.80;1.10;;;;;;;;;;5061340;28;20041;-69
2022/01/08 13:21:05;;;;;;;1.17;1.02;;;;;;;;;;5039187;28;20041;-69
2022/01/08 13:23:34;;;;;;;2.05;1.33;;;;;;;;;;5042578;28;20068;-70
2022/01/08 13:26:05;;;;;;;1.90;1.17;;;;;;;;;;5054011;28;20059;-70
2022/01/08 13:28:34;;;;;;;2.47;1.48;;;;;;;;;;5055002;28;20091;-70
2022/01/08 13:31:21;;;;;;;2.72;1.42;;;;;;;;;;5042957;28;20059;-70
2022/01/08 13:33:57;;;;;;;1.83;1.20;;;;;;;;;;5049109;28;20118;-70
2022/01/08 13:36:51;;;;;;;1.85;1.20;;;;;;;;;;1739615;28;10022532;-71
2022/01/08 13:39:26;;;;;;;1.52;1.15;;;;;;;;;;4007097;28;10001334;-70
2022/01/08 13:42:04;;;;;;;5.90;1.17;;;;;;;;;;5048737;28;20048;-70
2022/01/08 13:44:33;;;;;;;1.02;0.90;;;;;;;;;;5060904;28;20127;-70
2022/01/08 13:47:02;;;;;;;3.58;1.15;;;;;;;;;;5053210;28;20118;-69
2022/01/08 13:49:33;;;;;;;2.63;1.08;;;;;;;;;;5052457;28;20044;-69
2022/01/08 13:52:04;;;;;;;2.70;1.05;;;;;;;;;;5051894;28;20045;-69
2022/01/08 13:54:36;;;;;;;5.93;1.30;;;;;;;;;;5048361;28;20037;-69
2022/01/08 13:57:12;;;;;;;6.13;2.97;;;;;;;;;;5051339;28;20455;-70
2022/01/08 13:59:40;;;;;;;1.38;1.00;;;;;;;;;;5042635;28;20048;-69
2022/01/08 14:02:10;;;;;;;2.72;1.33;;;;;;;;;;5046807;28;20500;-69
2022/01/08 14:04:40;;;;;;;2.25;0.90;;;;;;;;;;5043346;28;20539;-69
2022/01/08 14:07:11;;;;;;;2.95;1.30;;;;;;;;;;5064024;28;20522;-69
2022/01/08 14:09:40;;;;;;;2.33;1.25;;;;;;;;;;5048166;28;20044;-69
2022/01/08 14:12:15;;;;;;;7.25;1.15;;;;;;;;;;5049452;28;20576;-69
2022/01/08 14:14:50;;;;;;;2.33;1.10;;;;;;;;;;5049037;28;20052;-70
2022/01/08 14:17:19;;;;;;;0.85;0.85;;;;;;;;;;5044965;28;20143;-70
2022/01/08 14:19:50;;;;;;;1.60;0.77;;;;;;;;;;5047137;28;20139;-69
2022/01/08 14:22:23;;;;;;;1.88;1.08;;;;;;;;;;5051010;28;20065;-69
2022/01/08 14:24:52;;;;;;;1.70;1.00;;;;;;;;;;5048630;28;20095;-70
2022/01/08 14:27:22;;;;;;;1.63;0.80;;;;;;;;;;5043412;28;20076;-70
2022/01/08 14:30:05;;;;;;;1.52;1.00;;;;;;;;;;5053198;28;20143;-69
2022/01/08 14:32:34;;;;;;;2.20;0.90;;;;;;;;;;5045450;28;20088;-70
2022/01/08 14:35:07;;;;;;;2.95;1.02;;;;;;;;;;5041857;28;20488;-70
2022/01/08 14:37:37;;;;;;;1.77;0.90;;;;;;;;;;5053900;28;20149;-70
2022/01/08 14:40:15;;;;;;;3.38;0.90;;;;;;;;;;5049131;28;20060;-69
2022/01/08 14:42:44;;;;;;;1.48;0.88;;;;;;;;;;5053573;28;20049;-70
2022/01/08 14:45:17;;;;;;;2.95;0.90;;;;;;;;;;5053585;28;20527;-69
2022/01/08 14:47:46;;;;;;;2.08;1.00;;;;;;;;;;5055537;28;20053;-70
2022/01/08 14:50:17;;;;;;;0.65;0.65;;;;;;;;;;5053312;28;20048;-70
2022/01/08 14:52:45;;;;;;;4.18;0.95;;;;;;;;;;5055854;28;20079;-70
2022/01/08 14:55:15;;;;;;;1.33;1.00;;;;;;;;;;5054916;28;20107;-69
2022/01/08 14:57:43;;;;;;;3.65;0.98;;;;;;;;;;5060665;28;20139;-69
2022/01/08 15:00:13;;;;;;;5.68;1.00;;;;;;;;;;5054662;28;20135;-69
2022/01/08 15:02:42;;;;;;;1.38;0.80;;;;;;;;;;5055557;28;20052;-70
2022/01/08 15:05:12;;;;;;;0.90;0.70;;;;;;;;;;5053321;28;20048;-69
2022/01/08 15:07:42;;;;;;;2.83;1.10;;;;;;;;;;5043988;28;20056;-70
2022/01/08 15:10:11;;;;;;;1.95;0.52;;;;;;;;;;5054833;28;20055;-70
2022/01/08 15:12:40;;;;;;;1.83;1.08;;;;;;;;;;5054651;28;20045;-69
2022/01/08 15:15:09;;;;;;;2.53;0.98;;;;;;;;;;5055300;28;20124;-69
2022/01/08 15:17:38;;;;;;;7.97;1.08;;;;;;;;;;5053186;28;20111;-70